createdAt,value
2019-04-29T00:00:07.369Z,98992.11
2019-04-29T00:02:38.229Z,98997.19
2019-04-29T00:05:09.279Z,99001.47
2019-04-29T00:07:39.997Z,98999.74
2019-04-29T00:10:15.733Z,99003.77
2019-04-29T00:12:47.486Z,99009.46
2019-04-29T00:15:19.759Z,99018.55
2019-04-29T00:17:54.754Z,99014.02
2019-04-29T00:20:35.674Z,99019.39
2019-04-29T00:23:06.451Z,99023.73
2019-04-29T00:25:37.343Z,99016.95
2019-04-29T00:28:07.965Z,99013.45
2019-04-29T00:30:38.606Z,99019.72
2019-04-29T00:33:09.513Z,99021.08
2019-04-29T00:35:40.655Z,99017.56
2019-04-29T00:38:18.872Z,99019.92
2019-04-29T00:40:55.457Z,99020.34
2019-04-29T00:43:30.597Z,99016.62
2019-04-29T00:46:04.901Z,99014.23
2019-04-29T00:48:35.494Z,99012.19
2019-04-29T00:51:06.259Z,99013.52
2019-04-29T00:53:37.073Z,99016.62
2019-04-29T00:56:07.776Z,99015.91
2019-04-29T00:58:38.961Z,99019.09
2019-04-29T01:01:13.088Z,99018.47
2019-04-29T01:03:43.806Z,99016.83
2019-04-29T01:06:14.423Z,99012.69
2019-04-29T01:08:45.428Z,99013.94
2019-04-29T01:11:16.148Z,99019.63
2019-04-29T01:13:46.764Z,99016.53
2019-04-29T01:16:17.412Z,99015.48
2019-04-29T01:18:47.998Z,99011.17
2019-04-29T01:21:18.877Z,99017.36
2019-04-29T01:23:49.714Z,99015.81
2019-04-29T01:26:38.077Z,99017.56
2019-04-29T01:29:10.266Z,99012.71
2019-04-29T01:31:41.047Z,99013.25
2019-04-29T01:34:16.268Z,99014.67
2019-04-29T01:36:48.044Z,99017.77
2019-04-29T01:39:19.502Z,99023.23
2019-04-29T01:41:54.419Z,99025.08
2019-04-29T01:44:26.662Z,99022.72
2019-04-29T01:46:57.334Z,99021.67
2019-04-29T01:49:27.876Z,99019.83
2019-04-29T01:51:58.523Z,99027.66
2019-04-29T01:54:29.224Z,99028.28
2019-04-29T01:56:59.980Z,99027.11
2019-04-29T01:59:30.841Z,99032.83
2019-04-29T02:02:01.689Z,99036.75
2019-04-29T02:04:32.356Z,99033.03
2019-04-29T02:07:02.995Z,99042.81
2019-04-29T02:09:41.101Z,99037.44
2019-04-29T02:12:12.827Z,99039.78
2019-04-29T02:14:43.609Z,99039.05
2019-04-29T02:17:14.332Z,99046.34
2019-04-29T02:19:44.941Z,99043.77
2019-04-29T02:22:17.254Z,99052.59
2019-04-29T02:24:55.386Z,99046.91
2019-04-29T02:27:26.146Z,99057.08
2019-04-29T02:29:56.905Z,99060.02
2019-04-29T02:32:27.698Z,99063.91
2019-04-29T02:34:58.485Z,99064.10
2019-04-29T02:37:30.796Z,99056.81
2019-04-29T02:40:06.128Z,99059.19
2019-04-29T02:42:38.487Z,99059.59
2019-04-29T02:45:16.852Z,99055.37
2019-04-29T02:47:47.552Z,99061.06
2019-04-29T02:50:18.991Z,99060.53
2019-04-29T02:52:49.766Z,99059.83
2019-04-29T02:55:22.107Z,99053.13
2019-04-29T02:57:57.186Z,99052.12
2019-04-29T03:00:32.128Z,99049.88
2019-04-29T03:03:04.346Z,99057.91
2019-04-29T03:05:39.879Z,99053.31
2019-04-29T03:08:09.092Z,99056.32
2019-04-29T03:10:39.764Z,99066.02
2019-04-29T03:13:10.576Z,99067.91
2019-04-29T03:15:42.970Z,99069.88
2019-04-29T03:18:14.795Z,99074.98
2019-04-29T03:20:47.062Z,99072.46
2019-04-29T03:23:22.312Z,99074.77
2019-04-29T03:25:54.076Z,99067.86
2019-04-29T03:28:24.910Z,99073.70
2019-04-29T03:30:55.845Z,99074.63
2019-04-29T03:33:26.644Z,99075.64
2019-04-29T03:35:57.463Z,99077.91
2019-04-29T03:38:28.320Z,99072.77
2019-04-29T03:40:59.220Z,99071.52
2019-04-29T03:43:29.950Z,99075.90
2019-04-29T03:46:00.854Z,99072.55
2019-04-29T03:48:31.740Z,99081.91
2019-04-29T03:51:05.216Z,99073.35
2019-04-29T03:53:36.115Z,99077.56
2019-04-29T03:56:06.904Z,99086.80
2019-04-29T03:58:37.779Z,99087.09
2019-04-29T04:01:16.069Z,99088.65
2019-04-29T04:03:54.825Z,99091.70
2019-04-29T04:06:27.116Z,99083.50
2019-04-29T04:09:06.174Z,99085.08
2019-04-29T04:11:33.261Z,99083.50
2019-04-29T04:14:05.254Z,99084.25
2019-04-29T04:16:55.733Z,99087.58
2019-04-29T04:19:29.123Z,99094.25
2019-04-29T04:22:00.936Z,99087.09
2019-04-29T04:24:31.535Z,99096.30
2019-04-29T04:27:05.046Z,99099.98
2019-04-29T04:29:35.981Z,99094.91
2019-04-29T04:32:06.753Z,99098.94
2019-04-29T04:34:37.607Z,99102.08
2019-04-29T04:37:08.455Z,99094.45
2019-04-29T04:39:40.823Z,99091.02
2019-04-29T04:42:12.502Z,99101.33
2019-04-29T04:44:50.519Z,99095.17
2019-04-29T04:47:21.612Z,99101.70
2019-04-29T04:49:52.440Z,99099.09
2019-04-29T04:52:23.171Z,99099.59
2019-04-29T04:54:55.657Z,99107.81
2019-04-29T04:57:26.452Z,99106.13
2019-04-29T04:59:57.366Z,99108.94
2019-04-29T05:02:28.525Z,99098.00
2019-04-29T05:05:00.744Z,99108.84
2019-04-29T05:07:31.751Z,99105.89
2019-04-29T05:10:02.493Z,99104.64
2019-04-29T05:12:33.096Z,99105.18
2019-04-29T05:15:04.811Z,99106.06
2019-04-29T05:17:38.375Z,99099.63
2019-04-29T05:20:11.052Z,99097.91
2019-04-29T05:22:43.276Z,99100.86
2019-04-29T05:25:14.166Z,99101.38
2019-04-29T05:27:45.461Z,99109.00
2019-04-29T05:30:16.175Z,99098.23
2019-04-29T05:32:47.632Z,99094.27
2019-04-29T05:35:45.569Z,99095.90
2019-04-29T05:38:22.724Z,99103.48
2019-04-29T05:40:56.735Z,99111.75
2019-04-29T05:43:33.853Z,99107.84
2019-04-29T05:46:12.302Z,99105.64
2019-04-29T05:48:43.328Z,99106.53
2019-04-29T05:51:18.151Z,99101.18
2019-04-29T05:53:54.871Z,99101.31
2019-04-29T05:56:22.769Z,99103.86
2019-04-29T05:58:53.574Z,99101.96
2019-04-29T06:01:26.006Z,99101.72
2019-04-29T06:03:56.920Z,99098.77
2019-04-29T06:06:27.824Z,99100.84
2019-04-29T06:08:58.568Z,99102.48
2019-04-29T06:11:29.159Z,99111.33
2019-04-29T06:13:59.991Z,99105.89
2019-04-29T06:16:30.679Z,99111.56
2019-04-29T06:19:05.542Z,99122.20
2019-04-29T06:21:33.794Z,99122.25
2019-04-29T06:24:06.922Z,99125.42
2019-04-29T06:26:37.643Z,99113.81
2019-04-29T06:29:08.454Z,99115.47
2019-04-29T06:31:39.208Z,99112.83
2019-04-29T06:34:09.912Z,99113.76
2019-04-29T06:36:40.526Z,99105.70
2019-04-29T06:39:11.040Z,99111.90
2019-04-29T06:41:45.385Z,99118.97
2019-04-29T06:44:16.715Z,99110.20
2019-04-29T06:46:50.245Z,99120.52
2019-04-29T06:49:18.958Z,99117.37
2019-04-29T06:51:49.698Z,99109.87
2019-04-29T06:54:20.624Z,99109.75
2019-04-29T06:56:51.375Z,99108.75
2019-04-29T06:59:22.063Z,99119.11
2019-04-29T07:01:52.829Z,99122.19
2019-04-29T07:04:23.629Z,99124.63
2019-04-29T07:06:57.525Z,99120.77
2019-04-29T07:09:27.147Z,99119.55
2019-04-29T07:12:01.621Z,99118.51
2019-04-29T07:14:33.394Z,99123.78
2019-04-29T07:17:05.703Z,99118.51
2019-04-29T07:19:40.162Z,99121.33
2019-04-29T07:22:13.076Z,99126.13
2019-04-29T07:24:43.894Z,99114.70
2019-04-29T07:27:14.565Z,99116.39
2019-04-29T07:29:45.411Z,99118.83
2019-04-29T07:32:16.276Z,99125.70
2019-04-29T07:34:46.874Z,99131.75
2019-04-29T07:37:17.514Z,99131.91
2019-04-29T07:39:48.282Z,99138.34
2019-04-29T07:42:18.921Z,99143.47
2019-04-29T07:45:07.244Z,99144.23
2019-04-29T07:47:38.783Z,99143.05
2019-04-29T07:50:09.717Z,99142.69
2019-04-29T07:52:45.642Z,99145.38
2019-04-29T07:55:15.322Z,99145.45
2019-04-29T07:57:47.772Z,99130.48
2019-04-29T08:00:21.489Z,99131.97
2019-04-29T08:02:52.255Z,99125.81
2019-04-29T08:05:22.956Z,99125.63
2019-04-29T08:07:54.278Z,99120.34
2019-04-29T08:10:28.577Z,99118.34
2019-04-29T08:12:59.126Z,99126.88
2019-04-29T08:15:31.923Z,99130.30
2019-04-29T08:18:06.628Z,99123.84
2019-04-29T08:20:35.526Z,99129.91
2019-04-29T08:23:07.017Z,99131.98
2019-04-29T08:25:37.637Z,99132.47
2019-04-29T08:28:08.331Z,99137.47
2019-04-29T08:30:41.903Z,99130.84
2019-04-29T08:33:13.129Z,99132.25
2019-04-29T08:35:46.663Z,99134.29
2019-04-29T08:38:16.584Z,99140.83
2019-04-29T08:40:49.976Z,99141.45
2019-04-29T08:43:33.507Z,99139.91
2019-04-29T08:46:11.882Z,99136.44
2019-04-29T08:48:45.796Z,99131.39
2019-04-29T08:51:15.271Z,99131.03
2019-04-29T08:53:45.874Z,99137.87
2019-04-29T08:56:16.454Z,99134.69
2019-04-29T08:58:49.200Z,99137.11
2019-04-29T09:01:19.502Z,99135.81
2019-04-29T09:03:53.772Z,99135.52
2019-04-29T09:06:22.490Z,99129.16
2019-04-29T09:08:55.523Z,99130.95
2019-04-29T09:11:25.697Z,99136.32
2019-04-29T09:13:56.557Z,99133.11
2019-04-29T09:16:27.617Z,99132.98
2019-04-29T09:18:58.250Z,99140.09
2019-04-29T09:21:30.437Z,99145.28
2019-04-29T09:24:01.276Z,99140.50
2019-04-29T09:26:36.573Z,99151.24
2019-04-29T09:29:25.282Z,99153.50
2019-04-29T09:31:56.546Z,99163.23
2019-04-29T09:34:27.207Z,99163.95
2019-04-29T09:37:00.202Z,99165.23
2019-04-29T09:39:42.492Z,99171.45
2019-04-29T09:42:08.176Z,99170.52
2019-04-29T09:44:45.509Z,99175.02
2019-04-29T09:47:16.299Z,99177.97
2019-04-29T09:49:46.894Z,99174.78
2019-04-29T09:52:17.735Z,99185.11
2019-04-29T09:54:48.538Z,99181.76
2019-04-29T09:57:19.170Z,99185.85
2019-04-29T10:00:08.913Z,99187.65
2019-04-29T10:02:44.476Z,99183.68
2019-04-29T10:05:29.239Z,99186.46
2019-04-29T10:08:00.036Z,99191.31
2019-04-29T10:10:30.762Z,99196.13
2019-04-29T10:13:02.124Z,99199.53
2019-04-29T10:15:34.484Z,99188.55
2019-04-29T10:18:10.755Z,99197.09
2019-04-29T10:20:46.344Z,99195.08
2019-04-29T10:23:18.520Z,99196.70
2019-04-29T10:25:49.260Z,99190.96
2019-04-29T10:28:19.888Z,99198.88
2019-04-29T10:30:50.906Z,99199.62
2019-04-29T10:33:23.138Z,99194.39
2019-04-29T10:35:54.085Z,99200.70
2019-04-29T10:38:24.654Z,99198.48
2019-04-29T10:41:00.690Z,99199.69
2019-04-29T10:43:53.448Z,99195.39
2019-04-29T10:46:39.840Z,99189.05
2019-04-29T10:49:14.967Z,99193.08
2019-04-29T10:51:46.357Z,99187.28
2019-04-29T10:54:18.449Z,99194.05
2019-04-29T10:56:51.100Z,99196.52
2019-04-29T10:59:35.152Z,99200.37
2019-04-29T11:02:13.474Z,99194.39
2019-04-29T11:04:40.247Z,99202.39
2019-04-29T11:07:19.111Z,99198.30
2019-04-29T11:09:50.709Z,99195.08
2019-04-29T11:12:24.418Z,99198.38
2019-04-29T11:14:55.229Z,99192.44
2019-04-29T11:17:27.565Z,99196.05
2019-04-29T11:19:58.330Z,99198.18
2019-04-29T11:22:33.900Z,99194.98
2019-04-29T11:25:11.238Z,99199.22
2019-04-29T11:27:49.577Z,99201.97
2019-04-29T11:30:26.030Z,99198.42
2019-04-29T11:33:00.095Z,99196.02
2019-04-29T11:35:45.332Z,99196.17
2019-04-29T11:38:17.814Z,99197.54
2019-04-29T11:40:50.231Z,99190.81
2019-04-29T11:43:21.029Z,99192.36
2019-04-29T11:45:52.151Z,99191.52
2019-04-29T11:48:22.852Z,99195.42
2019-04-29T11:51:01.365Z,99198.20
2019-04-29T11:53:32.263Z,99197.12
2019-04-29T11:56:02.887Z,99207.84
2019-04-29T11:58:38.137Z,99195.81
2019-04-29T12:01:38.420Z,99204.79
2019-04-29T12:04:01.476Z,99200.09
2019-04-29T12:06:32.294Z,99197.27
2019-04-29T12:09:06.561Z,99194.56
2019-04-29T12:11:37.333Z,99187.62
2019-04-29T12:14:18.318Z,99183.97
2019-04-29T12:16:56.813Z,99172.73
2019-04-29T12:19:32.278Z,99173.20
2019-04-29T12:22:04.767Z,99170.84
2019-04-29T12:24:35.785Z,99177.44
2019-04-29T12:27:06.995Z,99178.01
2019-04-29T12:29:37.814Z,99177.87
2019-04-29T12:32:10.321Z,99184.80
2019-04-29T12:34:42.882Z,99177.27
2019-04-29T12:37:18.004Z,99171.25
2019-04-29T12:39:50.476Z,99167.77
2019-04-29T12:42:40.206Z,99166.34
2019-04-29T12:45:19.916Z,99169.51
2019-04-29T12:47:50.825Z,99162.28
2019-04-29T12:50:22.991Z,99162.53
2019-04-29T12:52:54.229Z,99167.48
2019-04-29T12:55:43.640Z,99154.81
2019-04-29T12:57:59.155Z,99148.76
2019-04-29T13:00:46.875Z,99160.53
2019-04-29T13:03:08.688Z,99158.96
2019-04-29T13:05:57.929Z,99160.70
2019-04-29T13:08:21.254Z,99150.57
2019-04-29T13:10:53.502Z,99155.37
2019-04-29T13:13:24.279Z,99150.36
2019-04-29T13:16:05.657Z,99145.51
2019-04-29T13:18:53.793Z,99145.37
2019-04-29T13:21:22.745Z,99152.23
2019-04-29T13:24:05.331Z,99157.55
2019-04-29T13:26:28.303Z,99152.58
2019-04-29T13:29:01.018Z,99150.97
2019-04-29T13:31:38.546Z,99153.95
2019-04-29T13:34:22.826Z,99145.23
2019-04-29T13:36:40.185Z,99140.19
2019-04-29T13:39:11.263Z,99152.87
2019-04-29T13:41:56.283Z,99154.78
2019-04-29T13:44:19.296Z,99143.31
2019-04-29T13:46:54.090Z,99155.23
2019-04-29T13:49:31.667Z,99153.70
2019-04-29T13:52:03.911Z,99152.16
2019-04-29T13:54:37.193Z,99158.15
2019-04-29T13:57:15.612Z,99158.36
2019-04-29T13:59:53.147Z,99154.98
2019-04-29T14:02:36.776Z,99161.97
2019-04-29T14:05:10.914Z,99155.47
2019-04-29T14:07:42.110Z,99160.45
2019-04-29T14:10:16.800Z,99154.29
2019-04-29T14:13:00.714Z,99169.53
2019-04-29T14:15:21.719Z,99170.74
2019-04-29T14:17:52.727Z,99160.30
2019-04-29T14:20:24.682Z,99153.64
2019-04-29T14:22:55.370Z,99168.30
2019-04-29T14:25:26.062Z,99165.59
2019-04-29T14:27:56.825Z,99179.08
2019-04-29T14:30:38.392Z,99178.09
2019-04-29T14:33:03.044Z,99168.05
2019-04-29T14:35:36.428Z,99174.14
2019-04-29T14:38:07.135Z,99162.45
2019-04-29T14:40:39.123Z,99168.34
2019-04-29T14:43:31.712Z,99164.97
2019-04-29T14:46:15.959Z,99166.36
2019-04-29T14:48:48.024Z,99169.87
2019-04-29T14:51:18.833Z,99166.99
2019-04-29T14:53:56.539Z,99165.16
2019-04-29T14:56:25.195Z,99163.27
2019-04-29T14:59:06.584Z,99168.88
2019-04-29T15:01:36.622Z,99157.58
2019-04-29T15:04:18.403Z,99155.02
2019-04-29T15:06:44.711Z,99147.03
2019-04-29T15:09:19.830Z,99153.91
2019-04-29T15:11:59.145Z,99153.08
2019-04-29T15:14:33.391Z,99145.69
2019-04-29T15:17:17.490Z,99145.03
2019-04-29T15:19:55.832Z,99137.46
2019-04-29T15:22:30.221Z,99133.11
2019-04-29T15:25:01.683Z,99146.20
2019-04-29T15:27:32.895Z,99146.20
2019-04-29T15:30:06.317Z,99147.95
2019-04-29T15:32:37.669Z,99152.63
2019-04-29T15:35:08.510Z,99154.37
2019-04-29T15:37:39.248Z,99149.81
2019-04-29T15:40:11.503Z,99151.83
2019-04-29T15:42:46.270Z,99158.48
2019-04-29T15:45:16.314Z,99161.66
2019-04-29T15:47:47.254Z,99159.22
2019-04-29T15:50:19.437Z,99155.45
2019-04-29T15:52:50.423Z,99163.36
2019-04-29T15:55:21.085Z,99164.33
2019-04-29T15:57:52.697Z,99168.45
2019-04-29T16:00:24.996Z,99166.36
2019-04-29T16:02:58.648Z,99159.69
2019-04-29T16:06:11.129Z,99163.20
2019-04-29T16:08:29.265Z,99168.16
2019-04-29T16:10:59.320Z,99172.09
2019-04-29T16:13:32.930Z,99161.44
2019-04-29T16:16:03.714Z,99167.24
2019-04-29T16:18:34.702Z,99167.31
2019-04-29T16:21:05.453Z,99163.98
2019-04-29T16:23:38.567Z,99170.20
2019-04-29T16:26:08.744Z,99170.20
2019-04-29T16:28:40.221Z,99174.55
2019-04-29T16:31:12.175Z,99182.39
2019-04-29T16:33:47.305Z,99183.42
2019-04-29T16:36:16.226Z,99180.11
2019-04-29T16:38:51.328Z,99184.24
2019-04-29T16:41:36.376Z,99182.56
2019-04-29T16:44:34.290Z,99195.02
2019-04-29T16:46:47.354Z,99200.29
2019-04-29T16:49:18.815Z,99200.94
2019-04-29T16:51:53.442Z,99188.22
2019-04-29T16:54:28.121Z,99191.78
2019-04-29T16:56:56.065Z,99200.81
2019-04-29T16:59:26.851Z,99192.87
2019-04-29T17:01:57.822Z,99197.73
2019-04-29T17:04:29.975Z,99200.31
2019-04-29T17:07:12.139Z,99205.34
2019-04-29T17:09:48.458Z,99209.65
2019-04-29T17:12:19.324Z,99221.77
2019-04-29T17:15:03.745Z,99216.02
2019-04-29T17:17:29.328Z,99210.89
2019-04-29T17:19:56.871Z,99210.45
2019-04-29T17:22:27.929Z,99214.63
2019-04-29T17:24:58.679Z,99218.84
2019-04-29T17:27:46.130Z,99218.89
2019-04-29T17:30:38.265Z,99228.66
2019-04-29T17:33:27.754Z,99225.66
2019-04-29T17:35:57.519Z,99215.52
2019-04-29T17:38:28.264Z,99223.49
2019-04-29T17:40:59.000Z,99210.66
2019-04-29T17:43:44.749Z,99225.66
2019-04-29T17:46:17.472Z,99224.53
2019-04-29T17:48:54.073Z,99221.08
2019-04-29T17:51:26.958Z,99223.67
2019-04-29T17:54:27.943Z,99214.47
2019-04-29T17:57:25.662Z,99215.14
2019-04-29T17:59:45.931Z,99221.33
2019-04-29T18:02:22.975Z,99215.80
2019-04-29T18:05:02.086Z,99218.83
2019-04-29T18:07:51.923Z,99227.50
2019-04-29T18:10:24.091Z,99223.83
2019-04-29T18:12:55.254Z,99217.23
2019-04-29T18:15:40.182Z,99218.91
2019-04-29T18:18:07.134Z,99223.77
2019-04-29T18:20:39.509Z,99225.94
2019-04-29T18:23:30.299Z,99224.78
2019-04-29T18:26:05.472Z,99224.24
2019-04-29T18:28:37.383Z,99234.42
2019-04-29T18:31:09.869Z,99226.48
2019-04-29T18:33:41.226Z,99233.50
2019-04-29T18:36:21.787Z,99228.00
2019-04-29T18:38:48.708Z,99228.89
2019-04-29T18:41:24.479Z,99225.92
2019-04-29T18:43:49.357Z,99220.83
2019-04-29T18:46:20.160Z,99218.70
2019-04-29T18:48:51.108Z,99217.06
2019-04-29T18:51:25.689Z,99223.89
2019-04-29T18:53:55.543Z,99212.58
2019-04-29T18:56:26.388Z,99210.27
2019-04-29T18:58:57.146Z,99205.97
2019-04-29T19:01:28.987Z,99214.58
2019-04-29T19:04:10.118Z,99215.28
2019-04-29T19:06:40.711Z,99211.13
2019-04-29T19:09:20.093Z,99214.36
2019-04-29T19:11:46.360Z,99218.48
2019-04-29T19:14:20.579Z,99211.70
2019-04-29T19:16:52.722Z,99215.06
2019-04-29T19:19:22.260Z,99210.19
2019-04-29T19:21:52.979Z,99215.91
2019-04-29T19:24:23.840Z,99207.08
2019-04-29T19:27:00.549Z,99200.78
2019-04-29T19:29:27.227Z,99196.47
2019-04-29T19:31:57.955Z,99200.74
2019-04-29T19:34:39.961Z,99198.08
2019-04-29T19:37:01.192Z,99198.60
2019-04-29T19:39:31.929Z,99199.94
2019-04-29T19:42:02.667Z,99197.98
2019-04-29T19:44:36.536Z,99200.82
2019-04-29T19:47:06.168Z,99200.02
2019-04-29T19:49:40.283Z,99182.59
2019-04-29T19:52:09.507Z,99191.63
2019-04-29T19:54:40.329Z,99194.29
2019-04-29T19:57:11.091Z,99181.30
2019-04-29T19:59:50.409Z,99184.90
2019-04-29T20:02:16.566Z,99187.28
2019-04-29T20:04:53.773Z,99185.64
2019-04-29T20:07:26.117Z,99183.65
2019-04-29T20:10:03.904Z,99198.56
2019-04-29T20:12:28.861Z,99191.98
2019-04-29T20:15:02.353Z,99186.70
2019-04-29T20:17:50.669Z,99190.86
2019-04-29T20:20:25.045Z,99192.05
2019-04-29T20:22:56.015Z,99190.90
2019-04-29T20:25:30.267Z,99186.73
2019-04-29T20:28:05.749Z,99193.38
2019-04-29T20:30:35.586Z,99192.41
2019-04-29T20:33:09.596Z,99198.00
2019-04-29T20:35:40.391Z,99193.38
2019-04-29T20:38:11.682Z,99194.05
2019-04-29T20:40:43.611Z,99196.67
2019-04-29T20:43:15.993Z,99196.81
2019-04-29T20:45:47.187Z,99182.81
2019-04-29T20:48:19.617Z,99192.08
2019-04-29T20:50:52.642Z,99192.27
2019-04-29T20:53:30.916Z,99185.61
2019-04-29T20:56:09.505Z,99189.42
2019-04-29T20:58:33.270Z,99185.87
2019-04-29T21:01:11.193Z,99190.05
2019-04-29T21:03:46.206Z,99196.83
2019-04-29T21:06:13.838Z,99188.84
2019-04-29T21:08:50.871Z,99179.18
2019-04-29T21:11:37.305Z,99185.52
2019-04-29T21:14:12.509Z,99181.34
2019-04-29T21:16:44.936Z,99193.81
2019-04-29T21:19:15.713Z,99190.98
2019-04-29T21:21:47.519Z,99191.16
2019-04-29T21:24:18.912Z,99192.62
2019-04-29T21:26:49.655Z,99188.94
2019-04-29T21:29:20.443Z,99190.80
2019-04-29T21:31:58.465Z,99186.27
2019-04-29T21:34:25.625Z,99195.10
2019-04-29T21:37:10.241Z,99181.44
2019-04-29T21:39:42.716Z,99188.27
2019-04-29T21:42:35.334Z,99191.11
2019-04-29T21:45:08.800Z,99186.09
2019-04-29T21:47:44.281Z,99183.44
2019-04-29T21:50:10.235Z,99186.09
2019-04-29T21:52:42.375Z,99184.41
2019-04-29T21:55:13.769Z,99183.25
2019-04-29T21:57:44.769Z,99179.79
2019-04-29T22:00:24.091Z,99182.95
2019-04-29T22:02:49.215Z,99180.77
2019-04-29T22:05:22.847Z,99177.97
2019-04-29T22:07:54.381Z,99178.11
2019-04-29T22:10:29.021Z,99174.12
2019-04-29T22:13:01.978Z,99171.77
2019-04-29T22:15:37.283Z,99174.47
2019-04-29T22:18:07.276Z,99179.63
2019-04-29T22:20:42.292Z,99176.16
2019-04-29T22:23:13.120Z,99177.94
2019-04-29T22:25:45.279Z,99172.25
2019-04-29T22:28:16.104Z,99167.15
2019-04-29T22:30:49.916Z,99172.16
2019-04-29T22:33:18.864Z,99175.63
2019-04-29T22:35:49.722Z,99169.67
2019-04-29T22:38:20.567Z,99171.45
2019-04-29T22:40:52.474Z,99169.77
2019-04-29T22:43:40.233Z,99162.13
2019-04-29T22:46:10.667Z,99163.95
2019-04-29T22:48:45.384Z,99167.09
2019-04-29T22:51:17.600Z,99168.61
2019-04-29T22:53:48.162Z,99165.77
2019-04-29T22:56:19.205Z,99165.41
2019-04-29T22:58:50.030Z,99162.30
2019-04-29T23:01:20.737Z,99154.05
2019-04-29T23:03:51.320Z,99160.44
2019-04-29T23:06:22.318Z,99158.41
2019-04-29T23:08:53.094Z,99154.41
2019-04-29T23:11:23.858Z,99148.37
2019-04-29T23:13:55.459Z,99140.11
2019-04-29T23:16:26.419Z,99144.59
2019-04-29T23:18:57.238Z,99144.11
2019-04-29T23:21:37.408Z,99132.84
2019-04-29T23:24:13.260Z,99126.98
2019-04-29T23:26:42.305Z,99125.91
2019-04-29T23:29:12.102Z,99123.06
2019-04-29T23:31:43.293Z,99124.09
2019-04-29T23:34:15.549Z,99129.41
2019-04-29T23:36:48.903Z,99129.55
2019-04-29T23:39:18.726Z,99130.88
2019-04-29T23:41:49.518Z,99127.84
2019-04-29T23:44:20.254Z,99133.16
2019-04-29T23:46:51.090Z,99130.31
2019-04-29T23:49:21.839Z,99134.31
2019-04-29T23:51:52.426Z,99123.31
2019-04-29T23:54:24.861Z,99122.15
2019-04-29T23:57:03.325Z,99121.12
2019-04-29T23:59:47.310Z,99112.46
